Time;durP1;ratioP1;P1;durP2;ratioP2;P2;SDS_P1;SDS_P2;PMS_P1;PMS_P2;Temp;Humidity;BMP_temperature;BMP_pressure;BME280_temperature;BME280_humidity;BME280_pressure;Samples;Min_cycle;Max_cycle;Signal;HPM_P1;HPM_P2
2022/07/06 00:01:45;;;;;;;;;2.33;2.33;;;;;20.98;43.75;102144.44;4954877;28;45320;-78
2022/07/06 00:04:11;;;;;;;;;2.00;2.00;;;;;21.16;43.67;102173.19;4956383;28;45681;-78
2022/07/06 00:06:37;;;;;;;;;3.00;3.00;;;;;21.10;43.46;102167.81;4956044;28;45288;-78
2022/07/06 00:09:03;;;;;;;;;3.33;2.00;;;;;21.21;43.88;102197.50;4955635;28;46371;-78
2022/07/06 00:11:29;;;;;;;;;3.00;3.00;;;;;20.91;43.82;102137.25;4955962;28;45316;-78
2022/07/06 00:13:56;;;;;;;;;4.67;3.00;;;;;21.20;44.06;102193.88;4954815;28;45401;-78
2022/07/06 00:16:22;;;;;;;;;4.00;3.00;;;;;20.82;44.17;102138.19;4956095;28;45491;-78
2022/07/06 00:18:48;;;;;;;;;4.00;2.33;;;;;21.03;44.10;102172.31;4955794;28;46279;-79
2022/07/06 00:21:13;;;;;;;;;2.67;2.67;;;;;21.00;43.66;102158.84;4956030;28;45266;-78
2022/07/06 00:23:39;;;;;;;;;3.00;2.67;;;;;21.11;44.09;102183.09;4955603;28;45384;-78
2022/07/06 00:26:04;;;;;;;;;1.67;1.67;;;;;20.78;44.05;102124.72;4956123;28;45432;-78
2022/07/06 00:28:29;;;;;;;;;2.33;2.33;;;;;21.13;44.36;102185.81;4955685;28;46129;-78
2022/07/06 00:30:55;;;;;;;;;2.67;2.67;;;;;20.73;44.20;102132.78;4955843;28;45519;-78
2022/07/06 00:33:21;;;;;;;;;3.00;3.00;;;;;21.08;44.14;102193.88;4956062;28;45376;-78
2022/07/06 00:35:47;;;;;;;;;5.33;4.33;;;;;20.90;44.46;102170.56;4954269;28;45569;-78
2022/07/06 00:38:12;;;;;;;;;7.00;6.33;;;;;;;;4955530;28;46316;-78
2022/07/06 00:40:38;;;;;;;;;7.00;7.00;;;;;20.74;44.44;102134.59;4955544;28;45373;-78
2022/07/06 00:43:03;;;;;;;;;9.00;8.00;;;;;20.80;44.50;102144.47;4956074;28;45512;-78
2022/07/06 00:45:29;;;;;;;;;9.00;9.00;;;;;20.72;45.10;102120.22;4956234;28;45584;-78
2022/07/06 00:47:54;;;;;;;;;14.67;12.67;;;;;20.92;44.21;102160.66;4958947;28;45493;-78
2022/07/06 00:50:21;;;;;;;;;25.00;21.00;;;;;21.07;44.48;102194.81;4957770;28;45326;-78
2022/07/06 00:52:53;;;;;;;;;25.67;21.00;;;;;20.83;44.60;102161.56;4958231;28;45491;-78
2022/07/06 00:55:21;;;;;;;;;16.67;16.67;;;;;20.84;44.54;102148.97;4958870;28;45416;-78
2022/07/06 00:57:48;;;;;;;;;11.67;11.00;;;;;20.66;44.76;102125.56;4958562;28;46423;-78
2022/07/06 01:00:16;;;;;;;;;15.33;10.00;;;;;20.89;44.33;102139.06;4957383;28;45425;-78
2022/07/06 01:02:42;;;;;;;;;12.00;9.67;;;;;21.11;44.46;102191.22;4958732;28;45492;-78
2022/07/06 01:05:09;;;;;;;;;10.00;9.00;;;;;20.70;44.83;102135.50;4958473;28;45513;-78
2022/07/06 01:07:36;;;;;;;;;10.00;9.00;;;;;21.19;44.40;102197.47;4957288;28;48151;-78
2022/07/06 01:10:06;;;;;;;;;10.00;7.67;;;;;21.09;44.85;102187.59;4958493;28;45601;-78
2022/07/06 01:12:34;;;;;;;;;6.00;5.00;;;;;21.04;44.80;102197.50;4957434;28;45336;-78
2022/07/06 01:15:00;;;;;;;;;5.67;4.67;;;;;21.01;44.89;102192.09;4958853;28;45291;-78
2022/07/06 01:17:26;;;;;;;;;4.67;4.00;;;;;20.82;44.99;102151.66;4958307;28;45294;-78
2022/07/06 01:19:51;;;;;;;;;4.00;4.00;;;;;21.02;45.04;102185.81;4958280;28;45322;-78
2022/07/06 01:22:16;;;;;;;;;3.00;3.00;;;;;20.93;45.17;102170.53;4957655;28;45235;-78
2022/07/06 01:24:42;;;;;;;;;3.00;3.00;;;;;20.90;44.97;102168.75;4958331;28;45222;-78
2022/07/06 01:27:07;;;;;;;;;2.00;2.00;;;;;20.73;45.05;102157.06;4958479;28;46320;-78
2022/07/06 01:29:34;;;;;;;;;2.67;2.67;;;;;20.86;45.34;102177.75;4958351;28;45255;-77
2022/07/06 01:32:00;;;;;;;;;2.33;2.00;;;;;20.68;45.34;102150.78;4958618;28;45341;-77
2022/07/06 01:34:26;;;;;;;;;2.33;2.33;;;;;20.75;45.66;102175.97;4958063;28;45428;-77
2022/07/06 01:36:51;;;;;;;;;3.00;3.00;;;;;20.79;46.02;102192.13;4956763;28;47295;-77
2022/07/06 01:39:17;;;;;;;;;2.00;2.00;;;;;20.52;45.99;102147.16;4958491;28;45372;-77
2022/07/06 01:41:42;;;;;;;;;2.00;2.00;;;;;20.60;46.05;102157.94;4958260;28;45417;-77
2022/07/06 01:44:08;;;;;;;;;3.00;3.00;;;;;20.88;45.76;102194.81;4958149;28;45476;-76
2022/07/06 01:46:34;;;;;;;;;3.00;2.00;;;;;20.69;45.97;102152.59;4956713;28;48779;-77
2022/07/06 01:48:59;;;;;;;;;3.67;2.00;;;;;20.84;45.55;102168.75;4956358;28;45482;-77
2022/07/06 01:51:25;;;;;;;;;4.00;3.00;;;;;21.07;45.43;102197.50;4958248;28;45376;-77
2022/07/06 01:53:52;;;;;;;;;3.00;3.00;;;;;20.75;45.86;102157.97;4957633;28;45246;-78
2022/07/06 01:56:19;;;;;;;;;3.00;3.00;;;;;;;;4956850;28;46340;-77
2022/07/06 01:58:45;;;;;;;;;4.33;3.33;;;;;20.88;45.71;102186.72;4957075;28;45429;-77
2022/07/06 02:01:13;;;;;;;;;3.33;3.33;;;;;20.84;46.04;102192.13;4958093;28;45435;-77
2022/07/06 02:03:39;;;;;;;;;3.00;3.00;;;;;20.94;45.91;102201.09;4957445;28;45348;-78
2022/07/06 02:06:05;;;;;;;;;3.67;3.00;;;;;20.95;45.77;102194.81;4957820;28;45422;-78
2022/07/06 02:08:32;;;;;;;;;3.67;3.67;;;;;20.94;45.82;102193.00;4957784;28;45515;-77
2022/07/06 02:10:57;;;;;;;;;5.33;3.33;;;;;20.83;46.30;102177.75;4958010;28;45502;-77
2022/07/06 02:13:23;;;;;;;;;3.67;3.00;;;;;20.71;46.08;102165.16;4956292;28;45446;-78
2022/07/06 02:15:48;;;;;;;;;4.00;3.00;;;;;20.75;45.74;102160.66;4957344;28;45505;-78
2022/07/06 02:18:13;;;;;;;;;4.00;3.00;;;;;20.70;45.69;102133.72;4957610;28;45394;-78
2022/07/06 02:20:39;;;;;;;;;5.00;3.33;;;;;20.91;45.94;102172.31;4957712;28;45330;-77
2022/07/06 02:23:04;;;;;;;;;3.00;2.67;;;;;20.93;45.83;102156.13;4957818;28;45402;-76
2022/07/06 02:25:29;;;;;;;;;5.33;4.00;;;;;20.92;45.79;102160.66;4957518;28;46277;-76
2022/07/06 02:27:55;;;;;;;;;6.00;3.00;;;;;20.85;45.79;102159.75;4957359;28;45523;-76
2022/07/06 02:30:20;;;;;;;;;5.67;3.33;;;;;20.94;45.92;102182.22;4957858;28;45832;-76
2022/07/06 02:32:46;;;;;;;;;4.00;4.00;;;;;20.94;45.92;102179.53;4956992;28;45416;-76
2022/07/06 02:35:11;;;;;;;;;3.00;3.00;;;;;20.55;46.29;102113.00;4957430;28;45389;-76
2022/07/06 02:37:37;;;;;;;;;4.33;3.00;;;;;20.76;45.93;102148.06;4957247;28;45461;-77
2022/07/06 02:40:03;;;;;;;;;4.00;4.00;;;;;20.66;46.36;102137.28;4957395;28;45468;-77
2022/07/06 02:42:28;;;;;;;;;3.00;3.00;;;;;20.76;46.39;102150.75;4957490;28;45663;-77
2022/07/06 02:44:54;;;;;;;;;3.00;3.00;;;;;20.84;46.29;102168.75;4955946;28;48020;-77
2022/07/06 02:47:19;;;;;;;;;3.00;3.00;;;;;20.61;46.42;102127.41;4956730;28;45492;-77
2022/07/06 02:49:44;;;;;;;;;3.33;3.33;;;;;20.86;46.61;102182.25;4957147;28;45443;-77
2022/07/06 02:52:10;;;;;;;;;2.67;2.67;;;;;20.69;46.64;102166.09;4957390;28;45417;-77
2022/07/06 02:54:35;;;;;;;;;4.33;4.00;;;;;20.61;46.69;102143.56;4956624;28;46158;-77
2022/07/06 02:57:00;;;;;;;;;4.00;3.00;;;;;20.55;46.22;102150.75;4957153;28;45378;-78
2022/07/06 02:59:26;;;;;;;;;3.00;3.00;;;;;20.65;46.68;102173.22;4957225;28;45414;-77
2022/07/06 03:01:51;;;;;;;;;3.00;3.00;;;;;20.71;46.79;102184.03;4956585;28;45346;-77
2022/07/06 03:04:17;;;;;;;;;3.33;3.33;;;;;20.78;46.41;102184.94;4957118;28;45397;-77
2022/07/06 03:06:42;;;;;;;;;3.67;3.67;;;;;20.67;46.70;102170.53;4956886;28;45370;-77
2022/07/06 03:09:08;;;;;;;;;3.00;3.00;;;;;20.39;46.72;102139.09;4956884;28;45540;-77
2022/07/06 03:11:35;;;;;;;;;4.00;3.00;;;;;20.58;46.93;102178.63;4957056;28;45254;-77
2022/07/06 03:14:02;;;;;;;;;5.00;3.00;;;;;20.38;46.84;102153.44;4956417;28;45654;-77
2022/07/06 03:16:28;;;;;;;;;2.33;1.00;;;;;20.41;46.86;102155.25;4956654;28;45416;-78
2022/07/06 03:18:54;;;;;;;;;3.67;3.67;;;;;20.32;47.16;102142.69;4955412;28;45358;-78
2022/07/06 03:21:19;;;;;;;;;4.33;4.33;;;;;20.59;47.20;102196.59;4956904;28;45338;-78
2022/07/06 03:23:44;;;;;;;;;5.00;5.00;;;;;20.07;47.06;102117.50;4956444;28;46579;-78
2022/07/06 03:26:09;;;;;;;;;4.33;4.00;;;;;20.42;47.28;102175.94;4956785;28;45524;-78
2022/07/06 03:28:35;;;;;;;;;5.00;5.00;;;;;20.52;47.11;102199.28;4956606;28;45397;-78
2022/07/06 03:31:00;;;;;;;;;3.00;3.00;;;;;20.36;47.40;102186.69;4956510;28;45390;-78
2022/07/06 03:33:25;;;;;;;;;6.00;5.00;;;;;20.00;47.46;102139.91;4956629;28;45415;-78
2022/07/06 03:35:51;;;;;;;;;5.00;4.00;;;;;20.26;47.65;102195.66;4956300;28;45337;-78
2022/07/06 03:38:16;;;;;;;;;5.00;5.00;;;;;20.27;47.95;102211.84;4955211;28;45413;-78
2022/07/06 03:40:42;;;;;;;;;4.00;4.00;;;;;20.15;47.90;102198.31;4956474;28;45434;-78
2022/07/06 03:43:07;;;;;;;;;5.33;4.00;;;;;20.11;48.04;102200.13;4956348;28;46576;-78
2022/07/06 03:45:32;;;;;;;;;3.67;3.67;;;;;20.29;48.17;102226.19;4956256;28;45281;-78
2022/07/06 03:47:58;;;;;;;;;4.00;4.00;;;;;20.18;47.96;102198.31;4956330;28;45644;-78
2022/07/06 03:50:23;;;;;;;;;4.00;4.00;;;;;20.11;47.80;102166.88;4956551;28;45403;-78
2022/07/06 03:52:48;;;;;;;;;6.33;4.00;;;;;20.10;47.73;102163.31;4954460;28;47280;-78
2022/07/06 03:55:13;;;;;;;;;4.67;4.67;;;;;20.17;47.81;102196.56;4956472;28;45401;-78
2022/07/06 03:57:40;;;;;;;;;6.67;5.00;;;;;20.14;48.16;102201.91;4955158;28;45434;-78
2022/07/06 04:00:07;;;;;;;;;7.00;4.00;;;;;20.27;48.17;102227.13;4955823;28;45511;-78
2022/07/06 04:02:32;;;;;;;;;4.00;4.00;;;;;19.91;48.12;102169.53;4955964;28;46500;-78
2022/07/06 04:04:58;;;;;;;;;4.00;4.00;;;;;20.26;48.13;102223.50;4955965;28;45443;-78
2022/07/06 04:07:23;;;;;;;;;5.67;3.33;;;;;19.84;48.46;102145.31;4956457;28;45607;-78
2022/07/06 04:09:48;;;;;;;;;5.00;4.33;;;;;20.20;48.46;102210.91;4955728;28;45686;-78
2022/07/06 04:12:14;;;;;;;;;4.00;4.00;;;;;20.12;48.20;102177.66;4956161;28;46424;-78
2022/07/06 04:14:39;;;;;;;;;4.00;4.00;;;;;20.33;47.98;102203.75;4955504;28;45424;-78
2022/07/06 04:17:51;;;;;;;;;5.00;3.33;;;;;20.10;48.02;102186.63;4956112;28;45381;-78
2022/07/06 04:19:50;;;;;;;;;4.67;4.67;;;;;20.18;48.20;102204.66;4955723;28;45436;-78
2022/07/06 04:22:15;;;;;;;;;6.00;6.00;;;;;20.04;48.12;102183.06;4959336;28;46292;-78
2022/07/06 04:24:40;;;;;;;;;5.67;5.00;;;;;20.15;48.23;102193.81;4959141;28;45412;-78
2022/07/06 04:27:06;;;;;;;;;4.33;4.33;;;;;20.08;48.00;102162.38;4959387;28;45398;-78
2022/07/06 04:29:31;;;;;;;;;6.00;5.00;;;;;20.25;47.60;102188.47;4959069;28;45408;-78
2022/07/06 04:31:56;;;;;;;;;4.67;4.67;;;;;20.40;47.80;102210.94;4958730;28;52287;-78
2022/07/06 04:34:22;;;;;;;;;5.33;5.33;;;;;20.36;47.82;102198.34;4959310;28;46048;-78
2022/07/06 04:36:47;;;;;;;;;4.33;4.33;;;;;20.25;48.10;102183.97;4959084;28;45860;-78
2022/07/06 04:39:12;;;;;;;;;6.00;6.00;;;;;20.38;48.00;102206.47;4959395;28;45370;-78
2022/07/06 04:41:38;;;;;;;;;7.67;5.00;;;;;20.43;47.95;102210.06;4959243;28;45394;-78
2022/07/06 04:44:03;;;;;;;;;5.33;5.00;;;;;20.38;47.63;102195.69;4958562;28;45333;-78
2022/07/06 04:46:29;;;;;;;;;4.67;4.67;;;;;20.65;47.74;102229.84;4957988;28;45461;-78
2022/07/06 04:48:54;;;;;;;;;6.67;5.67;;;;;20.60;47.83;102218.16;4960302;28;45366;-78
2022/07/06 04:51:20;;;;;;;;;5.00;5.00;;;;;20.44;47.68;102184.03;4957713;28;46615;-78
2022/07/06 04:53:45;;;;;;;;;6.67;5.00;;;;;20.45;47.33;102175.94;4958642;28;45262;-78
2022/07/06 04:56:11;;;;;;;;;6.67;5.00;;;;;20.52;47.48;102190.28;4957665;28;45523;-78
2022/07/06 04:58:36;;;;;;;;;5.00;5.00;;;;;20.34;47.27;102166.94;4958558;28;45416;-78
2022/07/06 05:01:01;;;;;;;;;6.00;5.00;;;;;20.39;47.61;102189.38;4958559;28;45448;-78
2022/07/06 05:03:27;;;;;;;;;8.00;7.00;;;;;20.60;47.66;102228.06;4958802;28;45405;-78
2022/07/06 05:05:52;;;;;;;;;7.00;6.67;;;;;20.46;47.32;102217.25;4957326;28;45349;-78
2022/07/06 05:08:18;;;;;;;;;6.00;4.00;;;;;20.32;47.66;102180.41;4958622;28;45313;-78
2022/07/06 05:10:43;;;;;;;;;5.67;4.67;;;;;20.40;47.26;102193.88;4958452;28;45509;-78
2022/07/06 05:13:08;;;;;;;;;5.00;5.00;;;;;20.43;47.36;102188.50;4958351;28;45350;-78
2022/07/06 05:15:34;;;;;;;;;7.33;7.33;;;;;20.41;47.38;102176.81;4958794;28;45378;-78
2022/07/06 05:17:59;;;;;;;;;5.00;5.00;;;;;20.60;47.21;102211.88;4957121;28;45623;-78
2022/07/06 05:20:24;;;;;;;;;7.00;6.00;;;;;20.54;47.22;102205.56;4958503;28;45412;-78
2022/07/06 05:22:50;;;;;;;;;7.00;7.00;;;;;20.70;47.21;102232.56;4958449;28;45313;-78
2022/07/06 05:25:15;;;;;;;;;6.67;6.67;;;;;20.62;46.99;102219.06;4958490;28;45402;-78
2022/07/06 05:27:40;;;;;;;;;5.33;5.33;;;;;20.47;47.32;102195.69;4958446;28;45326;-78
2022/07/06 05:30:06;;;;;;;;;7.33;6.00;;;;;20.22;46.75;102165.09;4958105;28;46380;-78
2022/07/06 05:32:32;;;;;;;;;6.00;6.00;;;;;20.26;47.17;102168.72;4955895;28;45688;-78
2022/07/06 05:34:57;;;;;;;;;7.00;6.00;;;;;20.64;46.82;102233.44;4955980;28;45637;-78
2022/07/06 05:37:22;;;;;;;;;5.67;5.33;;;;;20.66;46.78;102233.44;4958403;28;45231;-78
2022/07/06 05:39:49;;;;;;;;;5.67;5.67;;;;;20.41;46.40;102174.13;4957135;28;47089;-77
2022/07/06 05:42:14;;;;;;;;;5.00;5.00;;;;;20.43;46.91;102187.59;4953721;28;45536;-77
2022/07/06 05:44:40;;;;;;;;;5.67;5.00;;;;;20.67;46.70;102211.91;4974101;28;45514;-77
2022/07/06 05:52:33;;;;;;;;;3.00;3.00;;;;;20.35;46.36;102180.41;4955926;28;45487;-77
2022/07/06 05:54:59;;;;;;;;;6.33;6.33;;;;;20.45;46.25;102184.00;4938467;28;45280;-76
2022/07/06 05:57:24;;;;;;;;;9.00;9.00;;;;;20.81;46.74;102260.44;4939197;28;45454;-72
2022/07/06 05:59:49;;;;;;;;;7.00;7.00;;;;;20.75;46.89;102238.88;4938644;28;45434;-71
2022/07/06 06:02:15;;;;;;;;;7.00;6.00;;;;;20.75;46.44;102246.09;4948690;28;45528;-75
2022/07/06 06:04:40;;;;;;;;;7.33;6.00;;;;;20.85;45.95;102256.84;4958241;28;45465;-75
2022/07/06 06:07:06;;;;;;;;;6.00;6.00;;;;;20.85;45.93;102251.47;4950886;28;45414;-75
2022/07/06 06:09:31;;;;;;;;;9.00;7.33;;;;;20.93;45.37;102250.56;4949941;28;45690;-72
2022/07/06 06:11:57;;;;;;;;;8.33;7.67;;;;;21.03;45.47;102265.88;4957123;28;45526;-74
2022/07/06 06:14:22;;;;;;;;;5.33;5.33;;;;;20.97;45.70;102247.88;4957785;28;45399;-72
2022/07/06 06:16:47;;;;;;;;;11.00;6.00;;;;;21.15;45.69;102260.47;4956631;28;45669;-73
2022/07/06 06:19:13;;;;;;;;;7.00;7.00;;;;;21.10;45.04;102251.47;4956529;28;45468;-72
2022/07/06 06:21:38;;;;;;;;;7.00;7.00;;;;;21.27;44.94;102258.66;4956310;28;45453;-72
2022/07/06 06:24:04;;;;;;;;;6.00;6.00;;;;;21.22;44.82;102237.97;4954580;28;45477;-76
2022/07/06 06:26:29;;;;;;;;;6.00;6.00;;;;;21.36;44.85;102266.72;4954934;28;45432;-72
2022/07/06 06:28:54;;;;;;;;;6.00;5.00;;;;;21.38;44.68;102251.44;4955421;28;45423;-72
2022/07/06 06:31:20;;;;;;;;;7.67;6.00;;;;;21.46;44.59;102264.91;4955720;28;45470;-72
2022/07/06 06:33:45;;;;;;;;;4.67;4.67;;;;;21.48;44.25;102250.50;4954819;28;45275;-73
2022/07/06 06:36:10;;;;;;;;;4.00;4.00;;;;;21.40;44.04;102234.31;4955897;28;45370;-72
2022/07/06 06:38:36;;;;;;;;;3.00;3.00;;;;;21.28;43.71;102204.66;4955355;28;46295;-72
2022/07/06 06:41:01;;;;;;;;;3.33;3.33;;;;;21.60;42.98;102252.28;4955316;28;45424;-74
2022/07/06 06:43:27;;;;;;;;;4.00;3.67;;;;;21.59;42.93;102246.00;4955445;28;45326;-72
2022/07/06 06:45:52;;;;;;;;;5.00;5.00;;;;;21.62;41.71;102238.78;4954988;28;45586;-71
2022/07/06 06:48:18;;;;;;;;;3.00;3.00;;;;;21.71;42.06;102261.25;4956432;28;46018;-71
2022/07/06 06:50:46;;;;;;;;;5.67;5.00;;;;;21.68;41.61;102236.06;4957113;28;45443;-73
2022/07/06 06:53:12;;;;;;;;;4.00;4.00;;;;;21.75;42.01;102243.25;4956609;28;45401;-71
2022/07/06 06:55:37;;;;;;;;;3.33;2.00;;;;;21.88;41.37;102273.81;4957319;28;45401;-72
2022/07/06 06:58:03;;;;;;;;;3.67;3.00;;;;;21.78;40.49;102261.25;4956851;28;46797;-72
2022/07/06 07:00:28;;;;;;;;;4.00;4.00;;;;;21.83;40.61;102257.63;4957043;28;45389;-73
2022/07/06 07:02:53;;;;;;;;;3.00;3.00;;;;;21.87;40.62;102261.19;4957276;28;45775;-72
2022/07/06 07:05:19;;;;;;;;;5.00;4.33;;;;;21.68;40.83;102226.16;4957132;28;45776;-71
2022/07/06 07:07:44;;;;;;;;;5.00;4.00;;;;;21.98;40.77;102271.97;4956730;28;45344;-70
2022/07/06 07:10:09;;;;;;;;;4.00;4.00;;;;;21.96;40.60;102263.00;4956964;28;45455;-71
2022/07/06 07:12:35;;;;;;;;;3.00;3.00;;;;;21.93;40.59;102256.66;4942693;28;45507;-71
2022/07/06 07:15:01;;;;;;;;;3.67;3.67;;;;;22.02;39.75;102265.66;4928526;28;46125;-71
2022/07/06 07:17:26;;;;;;;;;4.00;4.00;;;;;22.07;39.83;102274.63;4946817;28;45552;-70
2022/07/06 07:19:51;;;;;;;;;5.00;4.00;;;;;22.04;39.77;102277.38;4953240;28;45441;-70
2022/07/06 07:22:17;;;;;;;;;4.00;4.00;;;;;21.91;39.23;102269.31;4946630;28;45407;-70
2022/07/06 07:24:42;;;;;;;;;3.00;3.00;;;;;22.01;38.87;102277.34;4937341;28;45451;-70
2022/07/06 07:27:08;;;;;;;;;3.00;3.00;;;;;21.99;38.62;102274.66;4943257;28;45430;-71
2022/07/06 07:29:33;;;;;;;;;3.00;2.00;;;;;22.07;38.03;102277.34;4955533;28;45453;-71
2022/07/06 07:31:59;;;;;;;;;1.67;1.67;;;;;22.13;38.53;102279.13;4956363;28;45258;-71
2022/07/06 07:34:24;;;;;;;;;3.00;3.00;;;;;22.09;38.73;102272.81;4946687;28;45630;-71
2022/07/06 07:36:49;;;;;;;;;3.00;3.00;;;;;22.18;38.85;102261.06;4950833;28;46276;-70
2022/07/06 07:39:15;;;;;;;;;4.00;3.00;;;;;22.28;38.91;102269.09;4951152;28;45893;-70
2022/07/06 07:41:40;;;;;;;;;4.33;4.00;;;;;22.23;38.90;102264.63;4945575;28;45649;-69
2022/07/06 07:44:06;;;;;;;;;5.00;5.00;;;;;22.28;38.87;102262.81;4925598;28;45594;-69
2022/07/06 07:46:31;;;;;;;;;5.00;5.00;;;;;22.26;38.91;102262.81;4939381;28;45643;-71
2022/07/06 07:48:56;;;;;;;;;8.00;4.00;;;;;22.21;38.85;102247.53;4942068;28;45963;-74
2022/07/06 07:51:22;;;;;;;;;3.00;3.00;;;;;22.34;38.85;102268.22;4945849;28;45812;-70
2022/07/06 07:53:47;;;;;;;;;4.00;4.00;;;;;22.35;38.92;102264.59;4943291;28;45652;-71
2022/07/06 07:56:12;;;;;;;;;3.00;3.00;;;;;22.42;39.15;102268.19;4943826;28;45831;-72
2022/07/06 07:58:38;;;;;;;;;4.00;4.00;;;;;22.43;39.33;102262.75;4943899;28;45914;-72
2022/07/06 08:01:04;;;;;;;;;5.33;3.33;;;;;22.28;39.50;102224.97;4943386;28;45509;-72
2022/07/06 08:03:30;;;;;;;;;2.33;2.33;;;;;22.46;39.48;102244.69;4937907;28;45509;-71
2022/07/06 08:05:55;;;;;;;;;5.67;3.00;;;;;22.53;38.97;102254.56;4945612;28;45672;-72
2022/07/06 08:08:20;;;;;;;;;3.33;2.67;;;;;22.57;38.67;102242.81;4944842;28;45838;-71
2022/07/06 08:10:46;;;;;;;;;5.00;5.00;;;;;22.49;38.72;102229.38;4943149;28;45596;-72
2022/07/06 08:13:11;;;;;;;;;4.00;3.00;;;;;22.57;38.83;102242.81;4944485;28;45547;-73
2022/07/06 08:15:37;;;;;;;;;3.00;3.00;;;;;22.64;38.77;102246.38;4945105;28;45515;-72
2022/07/06 08:18:03;;;;;;;;;3.00;3.00;;;;;22.76;38.96;102252.59;4942965;28;46904;-72
2022/07/06 08:20:29;;;;;;;;;3.00;3.00;;;;;22.68;38.58;102230.09;4942027;28;45487;-71
2022/07/06 08:22:55;;;;;;;;;5.33;4.33;;;;;22.82;38.70;102240.81;4944583;28;45492;-72
2022/07/06 08:25:20;;;;;;;;;4.00;4.00;;;;;22.82;38.05;102230.00;4938152;28;45501;-72
2022/07/06 08:27:46;;;;;;;;;4.00;3.00;;;;;22.82;37.99;102246.22;4944675;28;45768;-72
2022/07/06 08:30:11;;;;;;;;;3.00;3.00;;;;;22.77;37.48;102237.28;4941324;28;45565;-74
2022/07/06 08:32:46;;;;;;;;;3.67;3.67;;;;;22.82;38.26;102237.22;4943686;28;45949;-72
2022/07/06 08:35:12;;;;;;;;;4.67;3.67;;;;;23.03;38.30;102255.09;4942192;28;46298;-71
2022/07/06 08:37:37;;;;;;;;;5.00;4.00;;;;;23.09;38.27;102260.44;4943593;28;45604;-73
2022/07/06 08:40:04;;;;;;;;;2.67;2.67;;;;;23.10;37.45;102248.69;4944279;28;45578;-72
2022/07/06 08:42:34;;;;;;;;;5.00;4.00;;;;;22.96;37.91;102246.13;4943707;28;45964;-72
2022/07/06 08:45:02;;;;;;;;;5.00;5.00;;;;;23.12;37.50;102257.72;4941311;28;46480;-72
2022/07/06 08:47:29;;;;;;;;;5.00;4.00;;;;;23.11;37.96;102248.72;4942362;28;45965;-72
2022/07/06 08:49:55;;;;;;;;;5.00;4.00;;;;;23.19;38.17;102239.63;4939655;28;45573;-72
2022/07/06 08:52:23;;;;;;;;;5.00;5.00;;;;;23.15;37.15;102244.19;4944683;28;46438;-73
2022/07/06 08:54:49;;;;;;;;;3.00;3.00;;;;;23.30;38.06;102259.34;4940783;28;46595;-73
2022/07/06 08:57:15;;;;;;;;;5.00;5.00;;;;;23.36;37.52;102243.06;4944836;28;45420;-72
2022/07/06 08:59:40;;;;;;;;;4.00;4.00;;;;;23.40;37.06;102242.13;4941669;28;45578;-72
2022/07/06 09:02:06;;;;;;;;;4.00;4.00;;;;;23.51;37.36;102241.09;4945716;28;45398;-71
2022/07/06 09:04:35;;;;;;;;;4.00;4.00;;;;;23.48;37.27;102228.47;4943529;28;46355;-72
2022/07/06 09:07:01;;;;;;;;;4.00;4.00;;;;;23.50;36.81;102220.31;4946394;28;45455;-73
2022/07/06 09:09:30;;;;;;;;;3.00;2.67;;;;;23.66;36.85;102229.19;4946399;28;45592;-73
2022/07/06 09:11:56;;;;;;;;;6.00;5.00;;;;;23.62;37.01;102210.22;4944525;28;45593;-73
2022/07/06 09:14:21;;;;;;;;;6.33;4.00;;;;;23.82;36.09;102233.47;4946887;28;46249;-72
2022/07/06 09:16:52;;;;;;;;;5.00;5.00;;;;;23.81;36.67;102212.72;4944955;28;45559;-73
2022/07/06 09:19:18;;;;;;;;;5.33;4.33;;;;;23.91;35.59;102225.28;4944923;28;45871;-73
2022/07/06 09:21:43;;;;;;;;;3.00;3.00;;;;;23.94;36.50;102230.66;4946162;28;45745;-73
2022/07/06 09:24:12;;;;;;;;;4.33;4.00;;;;;23.95;35.99;102204.44;4945930;28;46201;-72
2022/07/06 09:26:38;;;;;;;;;5.00;4.00;;;;;24.13;36.00;102228.59;4947396;28;46007;-71
2022/07/06 09:29:04;;;;;;;;;4.00;4.00;;;;;24.19;35.53;102222.19;4946091;28;45705;-73
2022/07/06 09:31:30;;;;;;;;;5.00;4.00;;;;;24.20;35.11;102215.81;4948094;28;45546;-72
2022/07/06 09:34:05;;;;;;;;;5.00;5.00;;;;;24.22;35.68;102218.50;4946637;28;45918;-72
2022/07/06 09:36:40;;;;;;;;;5.33;4.00;;;;;24.20;35.83;102217.66;4947484;28;45615;-74
2022/07/06 09:39:19;;;;;;;;;4.00;4.00;;;;;24.00;35.56;102213.41;4942935;28;45428;-71
2022/07/06 09:41:46;;;;;;;;;3.67;3.67;;;;;23.91;34.87;102206.31;4946361;28;45531;-70
2022/07/06 09:44:11;;;;;;;;;4.67;4.00;;;;;23.87;35.24;102207.25;4945984;28;45516;-69
2022/07/06 09:46:41;;;;;;;;;5.00;4.00;;;;;24.04;34.73;102219.69;4941860;28;45509;-71
2022/07/06 09:49:07;;;;;;;;;4.00;4.00;;;;;24.01;35.43;102211.56;4944648;28;45564;-71
2022/07/06 09:51:36;;;;;;;;;4.00;4.00;;;;;24.12;34.63;102220.44;4945434;28;45609;-71
2022/07/06 09:54:06;;;;;;;;;4.00;4.00;;;;;24.12;34.95;102205.09;4944865;28;47480;-72
2022/07/06 09:56:37;;;;;;;;;3.33;3.33;;;;;24.15;34.34;102209.59;4946218;28;45488;-71
2022/07/06 09:59:08;;;;;;;;;3.00;3.00;;;;;24.36;34.06;102226.44;4947458;28;45940;-71
2022/07/06 10:01:35;;;;;;;;;2.67;2.67;;;;;24.44;34.36;102216.38;4943074;28;45544;-71
2022/07/06 10:04:00;;;;;;;;;3.67;3.67;;;;;24.40;34.12;102199.25;4945255;28;46672;-70
2022/07/06 10:06:26;;;;;;;;;5.33;4.00;;;;;24.60;33.78;102225.19;4945480;28;45877;-69
2022/07/06 10:08:53;;;;;;;;;5.00;4.67;;;;;24.58;33.82;102214.31;4942821;28;45566;-69
2022/07/06 10:11:19;;;;;;;;;3.00;3.00;;;;;24.70;34.11;102212.34;4943518;28;45687;-69
2022/07/06 10:13:48;;;;;;;;;4.00;3.00;;;;;24.79;33.88;102223.94;4944500;28;47204;-70
2022/07/06 10:16:14;;;;;;;;;4.00;4.00;;;;;24.77;34.16;102211.34;4946509;28;45505;-71
2022/07/06 10:18:42;;;;;;;;;3.00;3.00;;;;;24.88;34.45;102212.06;4946005;28;45519;-71
2022/07/06 10:21:07;;;;;;;;;4.67;4.67;;;;;24.98;34.17;102215.50;4944794;28;45576;-71
2022/07/06 10:23:35;;;;;;;;;4.67;4.67;;;;;25.02;34.04;102219.97;4941129;28;46341;-71
2022/07/06 10:26:03;;;;;;;;;4.33;3.67;;;;;24.85;33.04;102206.66;4936179;28;45412;-71
2022/07/06 10:28:31;;;;;;;;;2.67;2.67;;;;;24.90;32.91;102217.47;4949584;28;45557;-72
2022/07/06 10:30:57;;;;;;;;;3.67;3.00;;;;;24.76;32.97;102188.72;4941015;28;45971;-72
2022/07/06 10:33:23;;;;;;;;;4.00;3.00;;;;;24.60;32.89;102195.34;4944603;28;46497;-72
2022/07/06 10:35:49;;;;;;;;;3.00;3.00;;;;;24.64;32.93;102219.69;4940286;28;45862;-70
2022/07/06 10:38:15;;;;;;;;;3.33;3.33;;;;;24.55;33.59;102203.53;4941430;28;45832;-70
2022/07/06 10:43:36;;;;;;;;;3.00;3.00;;;;;24.78;33.43;102211.34;4942143;28;45588;-72
2022/07/06 10:46:11;;;;;;;;;5.67;3.00;;;;;24.87;32.70;102204.84;4940664;28;45416;-70
2022/07/06 10:48:40;;;;;;;;;5.00;4.00;;;;;24.88;33.25;102189.44;4941030;28;45576;-70
2022/07/06 10:51:08;;;;;;;;;5.00;5.00;;;;;24.95;33.13;102208.31;4935935;28;45897;-71
2022/07/06 10:53:35;;;;;;;;;5.00;4.00;;;;;24.98;33.15;102200.09;4942380;28;46381;-71
2022/07/06 10:56:06;;;;;;;;;5.00;5.00;;;;;25.18;33.25;102198.84;4936726;28;45827;-72
2022/07/06 10:58:52;;;;;;;;;4.67;4.00;;;;;25.45;33.19;102199.25;4965605;28;45488;-72
2022/07/06 11:01:20;;;;;;;;;4.00;4.00;;;;;25.56;33.15;102209.91;4947434;28;45462;-71
2022/07/06 11:03:50;;;;;;;;;3.33;3.33;;;;;25.59;33.14;102218.88;4942857;28;46224;-70
2022/07/06 11:06:16;;;;;;;;;5.67;5.67;;;;;25.63;32.40;102215.16;4942910;28;46004;-72
2022/07/06 11:08:48;;;;;;;;;5.33;4.00;;;;;25.72;32.38;102224.06;4941310;28;45428;-70
2022/07/06 11:11:17;;;;;;;;;5.00;3.33;;;;;25.59;31.73;102196.25;4944126;28;45523;-71
2022/07/06 11:13:49;;;;;;;;;6.00;4.00;;;;;25.56;32.26;102204.47;4941729;28;45436;-70
2022/07/06 11:16:16;;;;;;;;;3.67;3.67;;;;;25.62;32.50;102193.47;4943200;28;45491;-72
2022/07/06 11:18:47;;;;;;;;;4.67;3.67;;;;;25.71;32.84;102203.22;4937300;28;45471;-70
2022/07/06 11:21:20;;;;;;;;;4.33;4.00;;;;;25.57;31.56;102190.84;4940198;28;45430;-70
2022/07/06 11:23:48;;;;;;;;;4.00;4.00;;;;;25.56;32.36;102194.50;4933403;28;45527;-71
2022/07/06 11:26:14;;;;;;;;;4.00;3.00;;;;;25.54;32.33;102185.50;4936120;28;45933;-71
2022/07/06 11:28:39;;;;;;;;;5.00;5.00;;;;;25.62;32.79;102193.47;4931517;28;45405;-69
2022/07/06 11:31:05;;;;;;;;;3.33;3.33;;;;;25.60;32.02;102182.63;4931498;28;45450;-71